sim
Sign-in with your pilot id or email,
or register
Callsign
Passwort

Schedule Details

Flight Number: RYR4952 (1)
Departure: London Stansted Airport (EGSS) at 07:40
Arrival: Perugia Umbria International Airport (LIRZ) at 10:10
Route: Ryanair Passenger Schedule. Enter filed route here before submitting Pirep.

Weather Information
Getting current METAR information for EGSS 161650Z AUTO 25003KT 9999 -RA OVC024 06/06 Q1015
Getting current METAR information for LIRZ 161650Z AUTO 04006KT //// // NCD 01/M05 Q1020

Schedule Frequency

Route Map